sensor_id;sensor_type;location;lat;lon;timestamp;P1;durP1;ratioP1;P2;durP2;ratioP2
22282;SDS011;11310;51.528;21.204;2023-07-13T00:01:39;6.25;;;3.05;;
22282;SDS011;11310;51.528;21.204;2023-07-13T00:04:11;9.82;;;3.45;;
22282;SDS011;11310;51.528;21.204;2023-07-13T00:06:40;8.77;;;3.20;;
22282;SDS011;11310;51.528;21.204;2023-07-13T00:09:11;7.50;;;3.03;;
22282;SDS011;11310;51.528;21.204;2023-07-13T00:11:41;7.20;;;3.05;;
22282;SDS011;11310;51.528;21.204;2023-07-13T00:14:10;5.22;;;2.90;;
22282;SDS011;11310;51.528;21.204;2023-07-13T00:16:40;8.80;;;3.10;;
22282;SDS011;11310;51.528;21.204;2023-07-13T00:19:12;6.18;;;3.17;;
22282;SDS011;11310;51.528;21.204;2023-07-13T00:22:22;8.65;;;3.55;;
22282;SDS011;11310;51.528;21.204;2023-07-13T00:24:53;10.52;;;3.03;;
22282;SDS011;11310;51.528;21.204;2023-07-13T00:27:23;7.97;;;3.38;;
22282;SDS011;11310;51.528;21.204;2023-07-13T00:29:53;9.90;;;3.45;;
22282;SDS011;11310;51.528;21.204;2023-07-13T00:32:22;10.77;;;3.30;;
22282;SDS011;11310;51.528;21.204;2023-07-13T00:34:53;5.93;;;3.15;;
22282;SDS011;11310;51.528;21.204;2023-07-13T00:37:22;10.85;;;3.20;;
22282;SDS011;11310;51.528;21.204;2023-07-13T00:40:17;9.25;;;3.00;;
22282;SDS011;11310;51.528;21.204;2023-07-13T00:43:02;8.20;;;3.40;;
22282;SDS011;11310;51.528;21.204;2023-07-13T00:48:39;9.15;;;2.92;;
22282;SDS011;11310;51.528;21.204;2023-07-13T00:51:10;8.55;;;3.47;;
22282;SDS011;11310;51.528;21.204;2023-07-13T00:53:40;6.65;;;3.05;;
22282;SDS011;11310;51.528;21.204;2023-07-13T00:56:09;5.20;;;2.90;;
22282;SDS011;11310;51.528;21.204;2023-07-13T00:58:39;6.38;;;3.35;;
22282;SDS011;11310;51.528;21.204;2023-07-13T01:01:08;6.75;;;3.05;;
22282;SDS011;11310;51.528;21.204;2023-07-13T01:03:40;8.52;;;3.40;;
22282;SDS011;11310;51.528;21.204;2023-07-13T01:06:10;6.20;;;3.03;;
22282;SDS011;11310;51.528;21.204;2023-07-13T01:08:39;8.48;;;3.22;;
22282;SDS011;11310;51.528;21.204;2023-07-13T01:11:08;10.52;;;3.15;;
22282;SDS011;11310;51.528;21.204;2023-07-13T01:13:37;9.48;;;3.03;;
22282;SDS011;11310;51.528;21.204;2023-07-13T01:16:12;5.45;;;3.05;;
22282;SDS011;11310;51.528;21.204;2023-07-13T01:18:52;5.93;;;2.90;;
22282;SDS011;11310;51.528;21.204;2023-07-13T01:21:24;6.10;;;3.00;;
22282;SDS011;11310;51.528;21.204;2023-07-13T01:23:54;5.97;;;2.73;;
22282;SDS011;11310;51.528;21.204;2023-07-13T01:26:23;5.07;;;2.40;;
22282;SDS011;11310;51.528;21.204;2023-07-13T01:28:52;6.05;;;3.15;;
22282;SDS011;11310;51.528;21.204;2023-07-13T01:31:23;4.97;;;2.70;;
22282;SDS011;11310;51.528;21.204;2023-07-13T01:33:53;4.53;;;2.88;;
22282;SDS011;11310;51.528;21.204;2023-07-13T01:36:23;6.82;;;2.70;;
22282;SDS011;11310;51.528;21.204;2023-07-13T01:38:53;4.57;;;2.60;;
22282;SDS011;11310;51.528;21.204;2023-07-13T01:41:22;7.50;;;2.65;;
22282;SDS011;11310;51.528;21.204;2023-07-13T01:43:53;5.65;;;3.05;;
22282;SDS011;11310;51.528;21.204;2023-07-13T01:46:21;7.35;;;2.90;;
22282;SDS011;11310;51.528;21.204;2023-07-13T01:48:50;5.97;;;2.90;;
22282;SDS011;11310;51.528;21.204;2023-07-13T01:51:20;8.38;;;3.10;;
22282;SDS011;11310;51.528;21.204;2023-07-13T01:53:51;7.57;;;3.45;;
22282;SDS011;11310;51.528;21.204;2023-07-13T01:56:20;5.45;;;3.10;;
22282;SDS011;11310;51.528;21.204;2023-07-13T01:58:49;5.40;;;2.80;;
22282;SDS011;11310;51.528;21.204;2023-07-13T02:01:17;5.22;;;2.75;;
22282;SDS011;11310;51.528;21.204;2023-07-13T02:03:46;7.30;;;3.08;;
22282;SDS011;11310;51.528;21.204;2023-07-13T02:06:15;7.55;;;3.05;;
22282;SDS011;11310;51.528;21.204;2023-07-13T02:08:44;10.32;;;3.20;;
22282;SDS011;11310;51.528;21.204;2023-07-13T02:11:14;9.23;;;3.72;;
22282;SDS011;11310;51.528;21.204;2023-07-13T02:13:43;7.90;;;3.45;;
22282;SDS011;11310;51.528;21.204;2023-07-13T02:16:12;7.07;;;3.10;;
22282;SDS011;11310;51.528;21.204;2023-07-13T02:18:41;5.80;;;3.33;;
22282;SDS011;11310;51.528;21.204;2023-07-13T02:21:10;7.82;;;3.50;;
22282;SDS011;11310;51.528;21.204;2023-07-13T02:23:39;7.65;;;3.10;;
22282;SDS011;11310;51.528;21.204;2023-07-13T02:26:08;7.57;;;3.15;;
22282;SDS011;11310;51.528;21.204;2023-07-13T02:28:39;11.57;;;3.75;;
22282;SDS011;11310;51.528;21.204;2023-07-13T02:31:08;9.15;;;3.60;;
22282;SDS011;11310;51.528;21.204;2023-07-13T02:33:45;9.73;;;3.72;;
22282;SDS011;11310;51.528;21.204;2023-07-13T02:36:14;10.48;;;3.60;;
22282;SDS011;11310;51.528;21.204;2023-07-13T02:38:45;7.05;;;3.10;;
22282;SDS011;11310;51.528;21.204;2023-07-13T02:41:14;7.47;;;3.00;;
22282;SDS011;11310;51.528;21.204;2023-07-13T02:43:46;8.07;;;3.10;;
22282;SDS011;11310;51.528;21.204;2023-07-13T02:46:16;6.28;;;3.38;;
22282;SDS011;11310;51.528;21.204;2023-07-13T02:48:46;5.35;;;3.08;;
22282;SDS011;11310;51.528;21.204;2023-07-13T02:51:15;7.32;;;3.33;;
22282;SDS011;11310;51.528;21.204;2023-07-13T02:53:44;8.52;;;3.03;;
22282;SDS011;11310;51.528;21.204;2023-07-13T02:56:14;6.10;;;3.42;;
22282;SDS011;11310;51.528;21.204;2023-07-13T02:58:43;7.35;;;3.53;;
22282;SDS011;11310;51.528;21.204;2023-07-13T03:01:14;7.72;;;3.22;;
22282;SDS011;11310;51.528;21.204;2023-07-13T03:03:47;8.40;;;3.55;;
22282;SDS011;11310;51.528;21.204;2023-07-13T03:06:18;8.23;;;3.53;;
22282;SDS011;11310;51.528;21.204;2023-07-13T03:08:52;7.18;;;3.30;;
22282;SDS011;11310;51.528;21.204;2023-07-13T03:11:22;8.68;;;3.33;;
22282;SDS011;11310;51.528;21.204;2023-07-13T03:14:18;5.72;;;2.65;;
22282;SDS011;11310;51.528;21.204;2023-07-13T03:16:47;5.85;;;2.90;;
22282;SDS011;11310;51.528;21.204;2023-07-13T03:19:16;5.85;;;2.90;;
22282;SDS011;11310;51.528;21.204;2023-07-13T03:21:49;5.07;;;2.75;;
22282;SDS011;11310;51.528;21.204;2023-07-13T03:24:18;5.47;;;2.60;;
22282;SDS011;11310;51.528;21.204;2023-07-13T03:26:48;4.93;;;2.63;;
22282;SDS011;11310;51.528;21.204;2023-07-13T03:29:18;4.75;;;2.92;;
22282;SDS011;11310;51.528;21.204;2023-07-13T03:31:47;6.90;;;2.67;;
22282;SDS011;11310;51.528;21.204;2023-07-13T03:34:17;5.88;;;2.63;;
22282;SDS011;11310;51.528;21.204;2023-07-13T03:36:46;4.82;;;2.55;;
22282;SDS011;11310;51.528;21.204;2023-07-13T03:39:15;7.80;;;2.78;;
22282;SDS011;11310;51.528;21.204;2023-07-13T03:41:51;7.00;;;2.78;;
22282;SDS011;11310;51.528;21.204;2023-07-13T03:44:23;6.03;;;3.05;;
22282;SDS011;11310;51.528;21.204;2023-07-13T03:46:55;7.10;;;3.17;;
22282;SDS011;11310;51.528;21.204;2023-07-13T03:49:24;4.63;;;2.90;;
22282;SDS011;11310;51.528;21.204;2023-07-13T03:51:53;5.97;;;2.83;;
22282;SDS011;11310;51.528;21.204;2023-07-13T03:54:22;8.75;;;2.85;;
22282;SDS011;11310;51.528;21.204;2023-07-13T03:56:52;4.53;;;2.72;;
22282;SDS011;11310;51.528;21.204;2023-07-13T03:59:23;6.47;;;3.22;;
22282;SDS011;11310;51.528;21.204;2023-07-13T04:01:51;6.57;;;3.97;;
22282;SDS011;11310;51.528;21.204;2023-07-13T04:04:20;12.77;;;3.22;;
22282;SDS011;11310;51.528;21.204;2023-07-13T04:06:49;9.55;;;3.38;;
22282;SDS011;11310;51.528;21.204;2023-07-13T04:09:19;10.57;;;3.92;;
22282;SDS011;11310;51.528;21.204;2023-07-13T04:11:48;9.40;;;4.47;;
22282;SDS011;11310;51.528;21.204;2023-07-13T04:14:17;7.25;;;4.05;;
22282;SDS011;11310;51.528;21.204;2023-07-13T04:16:48;7.03;;;3.72;;
22282;SDS011;11310;51.528;21.204;2023-07-13T04:19:17;6.83;;;3.57;;
22282;SDS011;11310;51.528;21.204;2023-07-13T04:21:46;8.70;;;4.70;;
22282;SDS011;11310;51.528;21.204;2023-07-13T04:24:15;10.88;;;5.47;;
22282;SDS011;11310;51.528;21.204;2023-07-13T04:26:44;8.95;;;4.97;;
22282;SDS011;11310;51.528;21.204;2023-07-13T04:29:13;8.25;;;4.55;;
22282;SDS011;11310;51.528;21.204;2023-07-13T04:31:42;8.57;;;4.72;;
22282;SDS011;11310;51.528;21.204;2023-07-13T04:34:12;9.45;;;4.75;;
22282;SDS011;11310;51.528;21.204;2023-07-13T04:36:41;7.47;;;4.50;;
22282;SDS011;11310;51.528;21.204;2023-07-13T04:39:10;8.10;;;4.78;;
22282;SDS011;11310;51.528;21.204;2023-07-13T04:41:39;8.00;;;4.70;;
22282;SDS011;11310;51.528;21.204;2023-07-13T04:44:08;7.68;;;4.38;;
22282;SDS011;11310;51.528;21.204;2023-07-13T04:46:37;10.32;;;4.65;;
22282;SDS011;11310;51.528;21.204;2023-07-13T04:49:06;11.00;;;4.93;;
22282;SDS011;11310;51.528;21.204;2023-07-13T04:51:37;9.65;;;5.45;;
22282;SDS011;11310;51.528;21.204;2023-07-13T04:54:06;9.55;;;4.75;;
22282;SDS011;11310;51.528;21.204;2023-07-13T04:56:35;9.20;;;5.50;;
22282;SDS011;11310;51.528;21.204;2023-07-13T04:59:04;9.93;;;5.30;;
22282;SDS011;11310;51.528;21.204;2023-07-13T05:01:33;10.50;;;5.25;;
22282;SDS011;11310;51.528;21.204;2023-07-13T05:04:02;12.82;;;4.95;;
22282;SDS011;11310;51.528;21.204;2023-07-13T05:06:31;8.15;;;4.85;;
22282;SDS011;11310;51.528;21.204;2023-07-13T05:09:02;10.73;;;5.10;;
22282;SDS011;11310;51.528;21.204;2023-07-13T05:11:31;12.25;;;5.82;;
22282;SDS011;11310;51.528;21.204;2023-07-13T05:14:00;9.20;;;5.32;;
22282;SDS011;11310;51.528;21.204;2023-07-13T05:16:29;10.88;;;5.57;;
22282;SDS011;11310;51.528;21.204;2023-07-13T05:18:59;11.25;;;5.55;;
22282;SDS011;11310;51.528;21.204;2023-07-13T05:21:28;9.27;;;5.32;;
22282;SDS011;11310;51.528;21.204;2023-07-13T05:23:57;10.32;;;5.80;;
22282;SDS011;11310;51.528;21.204;2023-07-13T05:26:47;9.43;;;5.28;;
22282;SDS011;11310;51.528;21.204;2023-07-13T05:29:15;11.95;;;5.68;;
22282;SDS011;11310;51.528;21.204;2023-07-13T05:31:44;10.27;;;5.90;;
22282;SDS011;11310;51.528;21.204;2023-07-13T05:34:13;10.18;;;6.10;;
22282;SDS011;11310;51.528;21.204;2023-07-13T05:36:43;9.90;;;5.85;;
22282;SDS011;11310;51.528;21.204;2023-07-13T05:39:12;9.55;;;5.90;;
22282;SDS011;11310;51.528;21.204;2023-07-13T05:41:41;10.35;;;5.78;;
22282;SDS011;11310;51.528;21.204;2023-07-13T05:44:12;11.40;;;5.43;;
22282;SDS011;11310;51.528;21.204;2023-07-13T05:46:40;9.00;;;5.28;;
22282;SDS011;11310;51.528;21.204;2023-07-13T05:49:10;9.30;;;5.15;;
22282;SDS011;11310;51.528;21.204;2023-07-13T05:51:38;9.68;;;5.75;;
22282;SDS011;11310;51.528;21.204;2023-07-13T05:54:08;14.38;;;5.78;;
22282;SDS011;11310;51.528;21.204;2023-07-13T05:56:37;10.25;;;6.00;;
22282;SDS011;11310;51.528;21.204;2023-07-13T05:59:06;9.55;;;5.32;;
22282;SDS011;11310;51.528;21.204;2023-07-13T06:01:37;15.45;;;5.97;;
22282;SDS011;11310;51.528;21.204;2023-07-13T06:04:06;10.45;;;5.65;;
22282;SDS011;11310;51.528;21.204;2023-07-13T06:06:35;8.55;;;5.43;;
22282;SDS011;11310;51.528;21.204;2023-07-13T06:09:05;9.02;;;5.45;;
22282;SDS011;11310;51.528;21.204;2023-07-13T06:11:34;13.05;;;5.82;;
22282;SDS011;11310;51.528;21.204;2023-07-13T06:14:03;8.98;;;5.50;;
22282;SDS011;11310;51.528;21.204;2023-07-13T06:16:32;10.52;;;5.10;;
22282;SDS011;11310;51.528;21.204;2023-07-13T06:19:03;8.52;;;5.35;;
22282;SDS011;11310;51.528;21.204;2023-07-13T06:21:32;10.63;;;6.18;;
22282;SDS011;11310;51.528;21.204;2023-07-13T06:24:00;11.60;;;5.65;;
22282;SDS011;11310;51.528;21.204;2023-07-13T06:26:29;8.82;;;4.85;;
22282;SDS011;11310;51.528;21.204;2023-07-13T06:28:59;11.57;;;5.18;;
22282;SDS011;11310;51.528;21.204;2023-07-13T06:31:27;9.18;;;5.32;;
22282;SDS011;11310;51.528;21.204;2023-07-13T06:33:57;12.63;;;5.90;;
22282;SDS011;11310;51.528;21.204;2023-07-13T06:36:28;10.30;;;6.22;;
22282;SDS011;11310;51.528;21.204;2023-07-13T06:38:57;12.40;;;6.15;;
22282;SDS011;11310;51.528;21.204;2023-07-13T06:41:27;10.93;;;6.18;;
22282;SDS011;11310;51.528;21.204;2023-07-13T06:43:58;13.63;;;6.22;;
22282;SDS011;11310;51.528;21.204;2023-07-13T06:46:28;10.57;;;5.80;;
22282;SDS011;11310;51.528;21.204;2023-07-13T06:48:57;12.50;;;6.07;;
22282;SDS011;11310;51.528;21.204;2023-07-13T06:51:26;13.77;;;5.95;;
22282;SDS011;11310;51.528;21.204;2023-07-13T06:53:56;10.15;;;5.97;;
22282;SDS011;11310;51.528;21.204;2023-07-13T06:56:25;10.32;;;6.20;;
22282;SDS011;11310;51.528;21.204;2023-07-13T06:58:54;10.98;;;6.43;;
22282;SDS011;11310;51.528;21.204;2023-07-13T07:01:23;9.20;;;5.70;;
22282;SDS011;11310;51.528;21.204;2023-07-13T07:03:52;12.80;;;6.20;;
22282;SDS011;11310;51.528;21.204;2023-07-13T07:06:21;8.52;;;5.47;;
22282;SDS011;11310;51.528;21.204;2023-07-13T07:08:51;23.55;;;12.27;;
22282;SDS011;11310;51.528;21.204;2023-07-13T07:11:22;38.67;;;13.23;;
22282;SDS011;11310;51.528;21.204;2023-07-13T07:13:53;158.27;;;24.15;;
22282;SDS011;11310;51.528;21.204;2023-07-13T07:16:24;11.38;;;6.38;;
22282;SDS011;11310;51.528;21.204;2023-07-13T07:18:53;11.57;;;6.43;;
22282;SDS011;11310;51.528;21.204;2023-07-13T07:21:23;12.15;;;6.30;;
22282;SDS011;11310;51.528;21.204;2023-07-13T07:23:53;10.40;;;6.10;;
22282;SDS011;11310;51.528;21.204;2023-07-13T07:26:23;9.93;;;6.03;;
22282;SDS011;11310;51.528;21.204;2023-07-13T07:28:57;10.07;;;6.07;;
22282;SDS011;11310;51.528;21.204;2023-07-13T07:34:00;12.57;;;5.75;;
22282;SDS011;11310;51.528;21.204;2023-07-13T07:36:29;11.10;;;6.63;;
22282;SDS011;11310;51.528;21.204;2023-07-13T07:39:01;10.90;;;6.85;;
22282;SDS011;11310;51.528;21.204;2023-07-13T07:41:33;12.30;;;6.82;;
22282;SDS011;11310;51.528;21.204;2023-07-13T07:44:05;15.45;;;7.30;;
22282;SDS011;11310;51.528;21.204;2023-07-13T07:46:36;11.68;;;7.18;;
22282;SDS011;11310;51.528;21.204;2023-07-13T07:49:08;13.13;;;7.47;;
22282;SDS011;11310;51.528;21.204;2023-07-13T07:51:37;9.88;;;6.65;;
22282;SDS011;11310;51.528;21.204;2023-07-13T07:54:07;13.52;;;7.50;;
22282;SDS011;11310;51.528;21.204;2023-07-13T07:56:41;11.80;;;7.35;;
22282;SDS011;11310;51.528;21.204;2023-07-13T07:59:13;11.00;;;6.88;;
22282;SDS011;11310;51.528;21.204;2023-07-13T08:01:46;13.85;;;7.88;;
22282;SDS011;11310;51.528;21.204;2023-07-13T08:04:20;13.68;;;7.53;;
22282;SDS011;11310;51.528;21.204;2023-07-13T08:06:51;15.77;;;8.10;;
22282;SDS011;11310;51.528;21.204;2023-07-13T08:09:23;12.55;;;7.50;;
22282;SDS011;11310;51.528;21.204;2023-07-13T08:11:53;12.82;;;8.00;;
22282;SDS011;11310;51.528;21.204;2023-07-13T08:14:26;11.30;;;7.75;;
22282;SDS011;11310;51.528;21.204;2023-07-13T08:17:15;11.90;;;7.82;;
22282;SDS011;11310;51.528;21.204;2023-07-13T08:19:46;12.27;;;8.07;;
22282;SDS011;11310;51.528;21.204;2023-07-13T08:22:15;14.18;;;9.30;;
22282;SDS011;11310;51.528;21.204;2023-07-13T08:24:45;13.30;;;8.05;;
22282;SDS011;11310;51.528;21.204;2023-07-13T08:27:16;12.00;;;7.25;;
22282;SDS011;11310;51.528;21.204;2023-07-13T08:29:45;12.55;;;8.00;;
22282;SDS011;11310;51.528;21.204;2023-07-13T08:32:16;14.65;;;8.13;;
22282;SDS011;11310;51.528;21.204;2023-07-13T08:34:46;13.00;;;7.63;;
22282;SDS011;11310;51.528;21.204;2023-07-13T08:37:15;9.82;;;7.20;;
22282;SDS011;11310;51.528;21.204;2023-07-13T08:39:45;14.18;;;8.52;;
22282;SDS011;11310;51.528;21.204;2023-07-13T08:42:21;15.68;;;8.90;;
22282;SDS011;11310;51.528;21.204;2023-07-13T08:45:03;11.73;;;8.00;;
22282;SDS011;11310;51.528;21.204;2023-07-13T08:47:39;16.08;;;9.98;;
22282;SDS011;11310;51.528;21.204;2023-07-13T08:50:15;18.33;;;9.15;;
22282;SDS011;11310;51.528;21.204;2023-07-13T08:52:48;13.43;;;8.73;;
22282;SDS011;11310;51.528;21.204;2023-07-13T08:55:18;12.43;;;8.18;;
22282;SDS011;11310;51.528;21.204;2023-07-13T09:00:23;12.30;;;7.80;;
22282;SDS011;11310;51.528;21.204;2023-07-13T09:03:00;13.05;;;8.50;;
22282;SDS011;11310;51.528;21.204;2023-07-13T09:05:33;12.73;;;8.00;;
22282;SDS011;11310;51.528;21.204;2023-07-13T09:08:14;12.88;;;8.05;;
22282;SDS011;11310;51.528;21.204;2023-07-13T09:10:59;13.30;;;7.65;;
22282;SDS011;11310;51.528;21.204;2023-07-13T09:13:38;13.45;;;8.07;;
22282;SDS011;11310;51.528;21.204;2023-07-13T09:16:12;12.90;;;8.35;;
22282;SDS011;11310;51.528;21.204;2023-07-13T09:18:42;12.98;;;8.30;;
22282;SDS011;11310;51.528;21.204;2023-07-13T09:21:15;13.63;;;7.97;;
22282;SDS011;11310;51.528;21.204;2023-07-13T09:23:49;13.60;;;8.20;;
22282;SDS011;11310;51.528;21.204;2023-07-13T09:26:23;13.25;;;8.32;;
22282;SDS011;11310;51.528;21.204;2023-07-13T09:28:59;13.57;;;8.02;;
22282;SDS011;11310;51.528;21.204;2023-07-13T09:31:41;14.13;;;8.35;;
22282;SDS011;11310;51.528;21.204;2023-07-13T09:34:13;11.45;;;7.97;;
22282;SDS011;11310;51.528;21.204;2023-07-13T09:36:41;10.65;;;7.60;;
22282;SDS011;11310;51.528;21.204;2023-07-13T09:39:12;10.77;;;7.30;;
22282;SDS011;11310;51.528;21.204;2023-07-13T09:41:48;14.02;;;8.90;;
22282;SDS011;11310;51.528;21.204;2023-07-13T09:44:29;14.27;;;7.90;;
22282;SDS011;11310;51.528;21.204;2023-07-13T09:46:59;12.05;;;7.68;;
22282;SDS011;11310;51.528;21.204;2023-07-13T09:49:29;10.75;;;7.45;;
22282;SDS011;11310;51.528;21.204;2023-07-13T09:52:03;12.13;;;7.30;;
22282;SDS011;11310;51.528;21.204;2023-07-13T09:54:34;12.02;;;8.00;;
22282;SDS011;11310;51.528;21.204;2023-07-13T09:57:13;11.70;;;7.72;;
22282;SDS011;11310;51.528;21.204;2023-07-13T09:59:46;13.00;;;7.60;;
22282;SDS011;11310;51.528;21.204;2023-07-13T10:02:24;11.45;;;7.60;;
22282;SDS011;11310;51.528;21.204;2023-07-13T10:04:56;12.73;;;7.53;;
22282;SDS011;11310;51.528;21.204;2023-07-13T10:07:27;14.52;;;7.10;;
22282;SDS011;11310;51.528;21.204;2023-07-13T10:09:57;10.68;;;6.90;;
22282;SDS011;11310;51.528;21.204;2023-07-13T10:12:30;11.45;;;6.80;;
22282;SDS011;11310;51.528;21.204;2023-07-13T10:15:13;12.10;;;7.57;;
22282;SDS011;11310;51.528;21.204;2023-07-13T10:17:51;13.10;;;7.28;;
22282;SDS011;11310;51.528;21.204;2023-07-13T10:22:52;9.32;;;6.45;;
22282;SDS011;11310;51.528;21.204;2023-07-13T10:25:26;11.30;;;7.10;;
22282;SDS011;11310;51.528;21.204;2023-07-13T10:28:02;9.23;;;6.63;;
22282;SDS011;11310;51.528;21.204;2023-07-13T10:30:38;11.02;;;7.55;;
22282;SDS011;11310;51.528;21.204;2023-07-13T10:33:12;10.68;;;7.35;;
22282;SDS011;11310;51.528;21.204;2023-07-13T10:35:45;15.45;;;7.38;;
22282;SDS011;11310;51.528;21.204;2023-07-13T10:38:21;11.85;;;6.70;;
22282;SDS011;11310;51.528;21.204;2023-07-13T10:40:56;10.00;;;6.60;;
22282;SDS011;11310;51.528;21.204;2023-07-13T10:43:27;10.45;;;6.63;;
22282;SDS011;11310;51.528;21.204;2023-07-13T10:46:05;14.32;;;6.68;;
22282;SDS011;11310;51.528;21.204;2023-07-13T10:48:37;9.93;;;6.50;;
22282;SDS011;11310;51.528;21.204;2023-07-13T10:51:08;12.02;;;6.28;;
22282;SDS011;11310;51.528;21.204;2023-07-13T10:53:40;10.00;;;6.47;;
22282;SDS011;11310;51.528;21.204;2023-07-13T10:56:19;13.35;;;7.53;;
22282;SDS011;11310;51.528;21.204;2023-07-13T10:59:01;9.18;;;6.28;;
22282;SDS011;11310;51.528;21.204;2023-07-13T11:01:48;9.02;;;5.93;;
22282;SDS011;11310;51.528;21.204;2023-07-13T11:04:21;9.57;;;5.95;;
22282;SDS011;11310;51.528;21.204;2023-07-13T11:12:01;9.30;;;5.70;;
22282;SDS011;11310;51.528;21.204;2023-07-13T11:14:36;9.20;;;5.40;;
22282;SDS011;11310;51.528;21.204;2023-07-13T11:23:15;9.70;;;5.95;;
22282;SDS011;11310;51.528;21.204;2023-07-13T11:25:47;12.32;;;6.72;;
22282;SDS011;11310;51.528;21.204;2023-07-13T11:28:22;11.30;;;6.28;;
22282;SDS011;11310;51.528;21.204;2023-07-13T11:31:03;9.65;;;5.55;;
22282;SDS011;11310;51.528;21.204;2023-07-13T11:33:52;9.10;;;5.65;;
22282;SDS011;11310;51.528;21.204;2023-07-13T11:36:29;9.73;;;7.07;;
22282;SDS011;11310;51.528;21.204;2023-07-13T11:39:01;9.88;;;6.40;;
22282;SDS011;11310;51.528;21.204;2023-07-13T11:41:34;11.27;;;6.88;;
22282;SDS011;11310;51.528;21.204;2023-07-13T11:44:10;11.75;;;7.03;;
22282;SDS011;11310;51.528;21.204;2023-07-13T11:46:44;10.70;;;6.38;;
22282;SDS011;11310;51.528;21.204;2023-07-13T11:49:20;11.95;;;7.15;;
22282;SDS011;11310;51.528;21.204;2023-07-13T11:51:51;11.52;;;7.05;;
22282;SDS011;11310;51.528;21.204;2023-07-13T11:54:25;12.45;;;7.28;;
22282;SDS011;11310;51.528;21.204;2023-07-13T11:56:57;10.15;;;6.88;;
22282;SDS011;11310;51.528;21.204;2023-07-13T11:59:29;12.45;;;7.03;;
22282;SDS011;11310;51.528;21.204;2023-07-13T12:01:59;14.82;;;7.57;;
22282;SDS011;11310;51.528;21.204;2023-07-13T12:04:32;11.18;;;7.82;;
22282;SDS011;11310;51.528;21.204;2023-07-13T12:07:05;12.88;;;7.22;;
22282;SDS011;11310;51.528;21.204;2023-07-13T12:09:36;14.70;;;7.60;;
22282;SDS011;11310;51.528;21.204;2023-07-13T12:12:10;12.45;;;7.85;;
22282;SDS011;11310;51.528;21.204;2023-07-13T12:14:40;12.40;;;7.63;;
22282;SDS011;11310;51.528;21.204;2023-07-13T12:17:11;11.85;;;6.68;;
22282;SDS011;11310;51.528;21.204;2023-07-13T12:19:49;10.50;;;6.70;;
22282;SDS011;11310;51.528;21.204;2023-07-13T12:22:20;9.35;;;5.78;;
22282;SDS011;11310;51.528;21.204;2023-07-13T12:24:50;8.40;;;5.30;;
22282;SDS011;11310;51.528;21.204;2023-07-13T12:27:22;10.50;;;5.32;;
22282;SDS011;11310;51.528;21.204;2023-07-13T12:29:52;7.68;;;5.00;;
22282;SDS011;11310;51.528;21.204;2023-07-13T12:32:27;8.15;;;5.25;;
22282;SDS011;11310;51.528;21.204;2023-07-13T12:35:12;9.85;;;5.78;;
22282;SDS011;11310;51.528;21.204;2023-07-13T12:37:43;8.02;;;5.20;;
22282;SDS011;11310;51.528;21.204;2023-07-13T12:40:14;9.07;;;5.43;;
22282;SDS011;11310;51.528;21.204;2023-07-13T12:42:46;8.60;;;5.55;;
22282;SDS011;11310;51.528;21.204;2023-07-13T12:45:18;9.20;;;5.60;;
22282;SDS011;11310;51.528;21.204;2023-07-13T12:47:53;13.07;;;5.72;;
22282;SDS011;11310;51.528;21.204;2023-07-13T12:50:34;9.68;;;5.35;;
22282;SDS011;11310;51.528;21.204;2023-07-13T12:53:05;9.88;;;5.50;;
22282;SDS011;11310;51.528;21.204;2023-07-13T12:55:41;11.55;;;5.20;;
22282;SDS011;11310;51.528;21.204;2023-07-13T12:58:13;8.67;;;5.23;;
22282;SDS011;11310;51.528;21.204;2023-07-13T13:00:50;10.50;;;3.97;;
22282;SDS011;11310;51.528;21.204;2023-07-13T13:03:22;9.55;;;3.80;;
22282;SDS011;11310;51.528;21.204;2023-07-13T13:05:59;8.07;;;4.18;;
22282;SDS011;11310;51.528;21.204;2023-07-13T13:08:30;7.53;;;4.47;;
22282;SDS011;11310;51.528;21.204;2023-07-13T13:11:01;8.40;;;4.10;;
22282;SDS011;11310;51.528;21.204;2023-07-13T13:13:30;6.30;;;3.72;;
22282;SDS011;11310;51.528;21.204;2023-07-13T13:16:01;10.30;;;4.55;;
22282;SDS011;11310;51.528;21.204;2023-07-13T13:18:33;8.10;;;4.22;;
22282;SDS011;11310;51.528;21.204;2023-07-13T13:21:04;7.15;;;3.80;;
22282;SDS011;11310;51.528;21.204;2023-07-13T13:23:33;9.15;;;4.25;;
22282;SDS011;11310;51.528;21.204;2023-07-13T13:26:01;7.10;;;4.13;;
22282;SDS011;11310;51.528;21.204;2023-07-13T13:28:31;10.25;;;3.83;;
22282;SDS011;11310;51.528;21.204;2023-07-13T13:31:00;9.02;;;4.22;;
22282;SDS011;11310;51.528;21.204;2023-07-13T13:33:29;7.78;;;3.65;;
22282;SDS011;11310;51.528;21.204;2023-07-13T13:36:02;6.13;;;3.53;;
22282;SDS011;11310;51.528;21.204;2023-07-13T13:38:45;6.95;;;3.72;;
22282;SDS011;11310;51.528;21.204;2023-07-13T13:41:15;11.45;;;4.10;;
22282;SDS011;11310;51.528;21.204;2023-07-13T13:43:44;6.43;;;3.70;;
22282;SDS011;11310;51.528;21.204;2023-07-13T13:46:17;6.72;;;3.30;;
22282;SDS011;11310;51.528;21.204;2023-07-13T13:48:49;7.05;;;3.50;;
22282;SDS011;11310;51.528;21.204;2023-07-13T13:51:20;7.18;;;3.30;;
22282;SDS011;11310;51.528;21.204;2023-07-13T13:58:04;5.90;;;3.05;;
22282;SDS011;11310;51.528;21.204;2023-07-13T14:01:58;6.88;;;3.35;;
22282;SDS011;11310;51.528;21.204;2023-07-13T14:05:48;8.07;;;3.15;;
22282;SDS011;11310;51.528;21.204;2023-07-13T14:08:27;6.15;;;3.08;;
22282;SDS011;11310;51.528;21.204;2023-07-13T14:10:56;6.60;;;3.22;;
22282;SDS011;11310;51.528;21.204;2023-07-13T14:13:27;5.80;;;3.00;;
22282;SDS011;11310;51.528;21.204;2023-07-13T14:16:01;6.32;;;2.92;;
22282;SDS011;11310;51.528;21.204;2023-07-13T14:18:30;5.50;;;2.72;;
22282;SDS011;11310;51.528;21.204;2023-07-13T14:20:59;4.70;;;2.80;;
22282;SDS011;11310;51.528;21.204;2023-07-13T14:23:29;6.20;;;3.28;;
22282;SDS011;11310;51.528;21.204;2023-07-13T14:25:58;9.20;;;3.20;;
22282;SDS011;11310;51.528;21.204;2023-07-13T14:28:27;6.45;;;3.40;;
22282;SDS011;11310;51.528;21.204;2023-07-13T14:30:56;5.47;;;2.90;;
22282;SDS011;11310;51.528;21.204;2023-07-13T14:33:25;5.72;;;2.90;;
22282;SDS011;11310;51.528;21.204;2023-07-13T14:35:53;5.90;;;2.95;;
22282;SDS011;11310;51.528;21.204;2023-07-13T14:38:22;8.52;;;3.05;;
22282;SDS011;11310;51.528;21.204;2023-07-13T14:40:55;9.05;;;3.50;;
22282;SDS011;11310;51.528;21.204;2023-07-13T14:43:29;5.80;;;2.83;;
22282;SDS011;11310;51.528;21.204;2023-07-13T14:45:57;6.38;;;2.75;;
22282;SDS011;11310;51.528;21.204;2023-07-13T14:48:26;6.45;;;3.00;;
22282;SDS011;11310;51.528;21.204;2023-07-13T14:50:57;7.80;;;3.78;;
22282;SDS011;11310;51.528;21.204;2023-07-13T14:53:26;6.15;;;3.40;;
22282;SDS011;11310;51.528;21.204;2023-07-13T14:56:01;6.07;;;3.00;;
22282;SDS011;11310;51.528;21.204;2023-07-13T14:58:33;8.27;;;3.63;;
22282;SDS011;11310;51.528;21.204;2023-07-13T15:01:02;6.78;;;3.60;;
22282;SDS011;11310;51.528;21.204;2023-07-13T15:03:31;6.13;;;3.10;;
22282;SDS011;11310;51.528;21.204;2023-07-13T15:06:04;8.35;;;3.33;;
22282;SDS011;11310;51.528;21.204;2023-07-13T15:08:33;5.43;;;2.90;;
22282;SDS011;11310;51.528;21.204;2023-07-13T15:11:03;6.20;;;3.22;;
22282;SDS011;11310;51.528;21.204;2023-07-13T15:13:32;5.47;;;3.00;;
22282;SDS011;11310;51.528;21.204;2023-07-13T15:16:01;5.97;;;3.13;;
22282;SDS011;11310;51.528;21.204;2023-07-13T15:18:29;6.90;;;3.17;;
22282;SDS011;11310;51.528;21.204;2023-07-13T15:21:00;6.45;;;3.20;;
22282;SDS011;11310;51.528;21.204;2023-07-13T15:23:30;6.20;;;3.30;;